createdAt,value
2022-11-27T00:03:48.523Z,2.83
2022-11-27T00:07:50.319Z,2.90
2022-11-27T00:11:52.098Z,2.97
2022-11-27T00:15:57.475Z,2.47
2022-11-27T00:19:59.191Z,2.38
2022-11-27T00:24:03.903Z,2.38
2022-11-27T00:28:07.555Z,2.38
2022-11-27T00:32:09.454Z,2.65
2022-11-27T00:36:12.714Z,3.40
2022-11-27T00:40:15.584Z,2.45
2022-11-27T00:44:18.504Z,3.30
2022-11-27T00:48:20.208Z,2.13
2022-11-27T00:52:21.880Z,2.78
2022-11-27T00:56:26.702Z,3.00
2022-11-27T01:00:28.388Z,2.88
2022-11-27T01:04:30.442Z,2.78
2022-11-27T01:08:32.895Z,3.53
2022-11-27T01:12:34.602Z,2.50
2022-11-27T01:16:42.585Z,2.35
2022-11-27T01:20:44.896Z,2.10
2022-11-27T01:24:46.692Z,3.15
2022-11-27T01:28:52.188Z,2.40
2022-11-27T01:32:53.828Z,3.45
2022-11-27T01:36:55.510Z,4.82
2022-11-27T01:41:02.654Z,2.10
2022-11-27T01:45:04.675Z,4.80
2022-11-27T01:49:18.551Z,3.25
2022-11-27T01:53:20.395Z,3.03
2022-11-27T01:57:30.773Z,2.65
2022-11-27T02:01:32.482Z,3.08
2022-11-27T02:05:34.334Z,2.60
2022-11-27T02:09:36.239Z,3.22
2022-11-27T02:13:58.499Z,2.08
2022-11-27T02:18:09.247Z,2.95
2022-11-27T02:22:19.916Z,4.05
2022-11-27T02:26:59.981Z,2.78
2022-11-27T02:31:13.932Z,3.47
2022-11-27T02:35:26.892Z,4.32
2022-11-27T02:39:46.963Z,4.00
2022-11-27T02:43:51.562Z,2.33
2022-11-27T02:47:56.179Z,4.20
2022-11-27T02:52:01.293Z,2.63
2022-11-27T02:56:06.301Z,3.45
2022-11-27T03:00:09.514Z,2.33
2022-11-27T03:04:17.576Z,3.88
2022-11-27T03:08:32.823Z,3.92
2022-11-27T03:12:34.640Z,3.40
2022-11-27T03:16:51.243Z,2.80
2022-11-27T03:21:04.240Z,3.27
2022-11-27T03:25:06.192Z,3.90
2022-11-27T03:29:15.090Z,7.05
2022-11-27T03:33:18.341Z,6.45
2022-11-27T03:37:21.065Z,7.22
2022-11-27T03:41:41.735Z,6.03
2022-11-27T03:45:59.853Z,5.60
2022-11-27T03:50:17.769Z,5.38
2022-11-27T03:54:26.575Z,5.78
2022-11-27T03:58:34.851Z,5.60
2022-11-27T04:02:51.879Z,5.07
2022-11-27T04:06:53.667Z,7.68
2022-11-27T04:10:55.462Z,8.27
2022-11-27T04:14:57.392Z,7.25
2022-11-27T04:18:59.592Z,9.60
2022-11-27T04:23:01.340Z,12.02
2022-11-27T04:27:03.127Z,8.48
2022-11-27T04:31:05.345Z,11.27
2022-11-27T04:35:07.876Z,10.40
2022-11-27T04:39:09.660Z,7.55
2022-11-27T04:43:11.718Z,12.48
2022-11-27T04:47:13.528Z,8.02
2022-11-27T04:51:15.226Z,6.55
2022-11-27T04:55:17.277Z,5.40
2022-11-27T04:59:19.116Z,4.53
2022-11-27T05:03:20.989Z,3.25
2022-11-27T05:07:23.004Z,3.53
2022-11-27T05:11:24.964Z,3.15
2022-11-27T05:15:26.772Z,6.50
2022-11-27T05:19:30.408Z,5.35
2022-11-27T05:23:32.348Z,3.90
2022-11-27T05:27:34.047Z,3.45
2022-11-27T05:31:36.692Z,4.40
2022-11-27T05:35:38.521Z,4.25
2022-11-27T05:39:40.526Z,4.28
2022-11-27T05:43:42.499Z,4.22
2022-11-27T05:47:44.239Z,5.20
2022-11-27T05:51:50.989Z,4.40
2022-11-27T05:55:53.663Z,4.15
2022-11-27T05:59:55.459Z,3.00
2022-11-27T06:03:57.386Z,4.75
2022-11-27T06:07:59.170Z,4.35
2022-11-27T06:12:01.127Z,3.67
2022-11-27T06:16:07.591Z,5.57
2022-11-27T06:20:09.721Z,4.50
2022-11-27T06:24:11.397Z,5.93
2022-11-27T06:28:13.054Z,3.83
2022-11-27T06:32:14.766Z,5.30
2022-11-27T06:36:18.385Z,8.68
2022-11-27T06:40:20.068Z,8.10
2022-11-27T06:44:21.732Z,8.27
2022-11-27T06:48:23.566Z,8.73
2022-11-27T06:52:25.375Z,11.13
2022-11-27T06:56:29.013Z,8.73
2022-11-27T07:00:31.056Z,8.18
2022-11-27T07:04:32.713Z,8.45
2022-11-27T07:08:35.511Z,7.43
2022-11-27T07:12:37.399Z,7.03
2022-11-27T07:16:39.244Z,6.85
2022-11-27T07:20:41.000Z,6.93
2022-11-27T07:24:42.874Z,6.38
2022-11-27T07:28:48.466Z,5.22
2022-11-27T07:32:50.193Z,7.18
2022-11-27T07:36:52.735Z,9.15
2022-11-27T07:40:54.408Z,6.38
2022-11-27T07:44:56.175Z,11.25
2022-11-27T07:48:58.219Z,7.38
2022-11-27T07:52:59.999Z,8.32
2022-11-27T07:57:02.480Z,7.20
2022-11-27T08:01:10.195Z,7.10
2022-11-27T08:05:13.178Z,8.77
2022-11-27T08:09:15.319Z,10.60
2022-11-27T08:13:17.050Z,11.82
2022-11-27T08:17:19.449Z,10.40
2022-11-27T08:21:21.701Z,12.85
2022-11-27T08:25:23.387Z,8.50
2022-11-27T08:29:31.147Z,9.55
2022-11-27T08:33:36.596Z,6.03
2022-11-27T08:37:38.357Z,8.32
2022-11-27T08:41:40.102Z,10.05
2022-11-27T08:45:41.888Z,7.72
2022-11-27T08:49:46.271Z,7.60
2022-11-27T08:53:48.173Z,7.28
2022-11-27T08:57:51.262Z,4.80
2022-11-27T09:01:52.963Z,7.05
2022-11-27T09:05:54.669Z,8.80
2022-11-27T09:09:56.374Z,7.25
2022-11-27T09:14:02.315Z,9.32
2022-11-27T09:18:04.129Z,7.82
2022-11-27T09:22:05.900Z,6.53
2022-11-27T09:26:13.235Z,8.05
2022-11-27T09:30:15.060Z,6.35
2022-11-27T09:34:16.798Z,5.80
2022-11-27T09:38:19.083Z,5.13
2022-11-27T09:42:50.727Z,5.88
2022-11-27T09:46:54.371Z,5.32
2022-11-27T09:50:56.542Z,5.05
2022-11-27T09:55:09.785Z,5.32
2022-11-27T09:59:17.856Z,7.18
2022-11-27T10:03:26.811Z,9.10
2022-11-27T10:07:34.677Z,7.05
2022-11-27T10:11:42.221Z,8.23
2022-11-27T10:16:02.266Z,6.80
2022-11-27T10:20:46.880Z,7.50
2022-11-27T10:25:16.905Z,8.35
2022-11-27T10:29:43.286Z,9.20
2022-11-27T10:33:57.387Z,8.35
2022-11-27T10:38:17.253Z,10.32
2022-11-27T10:42:24.973Z,9.13
2022-11-27T10:46:36.193Z,9.10
2022-11-27T10:50:39.286Z,11.60
2022-11-27T10:54:42.952Z,10.43
2022-11-27T10:59:00.625Z,7.50
2022-11-27T11:07:24.413Z,7.05
2022-11-27T11:11:27.132Z,7.78
2022-11-27T11:15:28.803Z,6.15
2022-11-27T11:19:31.799Z,7.72
2022-11-27T11:23:38.830Z,8.88
2022-11-27T11:31:45.123Z,6.03
2022-11-27T11:35:55.456Z,7.05
2022-11-27T11:40:04.014Z,9.48
2022-11-27T11:44:05.876Z,10.48
2022-11-27T11:48:25.845Z,8.75
2022-11-27T11:52:49.597Z,8.27
2022-11-27T11:56:52.699Z,9.35
2022-11-27T12:01:26.425Z,9.13
2022-11-27T12:05:41.434Z,11.77
2022-11-27T12:10:06.211Z,5.88
2022-11-27T12:14:19.894Z,6.38
2022-11-27T12:18:39.552Z,11.55
2022-11-27T12:23:00.531Z,8.25
2022-11-27T12:27:12.730Z,9.30
2022-11-27T12:31:40.289Z,7.15
2022-11-27T12:35:51.067Z,7.90
2022-11-27T12:40:08.575Z,9.48
2022-11-27T12:44:48.546Z,12.40
2022-11-27T12:48:56.066Z,8.32
2022-11-27T12:53:15.407Z,13.13
2022-11-27T12:57:33.874Z,10.45
2022-11-27T13:02:01.693Z,10.73
2022-11-27T13:06:12.440Z,8.93
2022-11-27T13:10:33.459Z,8.82
2022-11-27T13:14:38.775Z,10.05
2022-11-27T13:18:47.107Z,13.48
2022-11-27T13:22:50.964Z,11.95
2022-11-27T13:27:10.909Z,11.65
2022-11-27T13:31:26.006Z,9.38
2022-11-27T13:35:29.447Z,12.02
2022-11-27T13:39:35.502Z,7.88
2022-11-27T13:43:37.166Z,8.90
2022-11-27T13:47:43.759Z,10.70
2022-11-27T13:51:45.513Z,9.98
2022-11-27T13:55:56.681Z,10.13
2022-11-27T14:00:03.041Z,12.88
2022-11-27T14:04:14.546Z,11.77
2022-11-27T14:08:29.979Z,12.65
2022-11-27T14:12:33.395Z,8.65
2022-11-27T14:16:36.954Z,11.07
2022-11-27T14:20:47.806Z,9.82
2022-11-27T14:24:55.917Z,13.20
2022-11-27T14:28:59.933Z,13.52
2022-11-27T14:33:05.944Z,11.57
2022-11-27T14:37:19.512Z,16.38
2022-11-27T14:41:25.614Z,18.52
2022-11-27T14:45:27.307Z,14.90
2022-11-27T14:49:31.036Z,16.67
2022-11-27T14:53:32.839Z,13.35
2022-11-27T14:57:35.427Z,15.18
2022-11-27T15:01:37.491Z,18.02
2022-11-27T15:05:39.545Z,18.75
2022-11-27T15:09:49.055Z,23.00
2022-11-27T15:13:56.148Z,19.65
2022-11-27T15:18:00.632Z,16.55
2022-11-27T15:22:03.230Z,17.02
2022-11-27T15:26:15.057Z,11.52
2022-11-27T15:30:19.032Z,13.30
2022-11-27T15:34:22.809Z,12.18
2022-11-27T15:38:24.470Z,19.73
2022-11-27T15:42:27.474Z,9.98
2022-11-27T15:46:34.508Z,10.20
2022-11-27T15:54:37.741Z,8.40
2022-11-27T15:58:39.463Z,12.95
2022-11-27T16:02:41.285Z,19.10
2022-11-27T16:06:43.064Z,16.85
2022-11-27T16:10:44.775Z,18.02
2022-11-27T16:14:46.464Z,11.02
2022-11-27T16:18:48.480Z,15.57
2022-11-27T16:22:50.243Z,20.58
2022-11-27T16:26:52.178Z,17.20
2022-11-27T16:30:59.393Z,16.33
2022-11-27T16:35:01.422Z,13.15
2022-11-27T16:39:04.597Z,15.60
2022-11-27T16:43:06.337Z,16.27
2022-11-27T16:47:08.050Z,19.88
2022-11-27T16:51:18.767Z,12.55
2022-11-27T16:55:20.974Z,10.50
2022-11-27T16:59:22.714Z,7.90
2022-11-27T17:03:25.144Z,10.95
2022-11-27T17:07:27.166Z,10.70
2022-11-27T17:11:33.560Z,9.98
2022-11-27T17:15:40.555Z,12.50
2022-11-27T17:19:43.375Z,9.35
2022-11-27T17:23:46.895Z,10.35
2022-11-27T17:27:49.436Z,14.10
2022-11-27T17:31:51.737Z,12.55
2022-11-27T17:35:53.471Z,11.20
2022-11-27T17:39:55.303Z,17.83
2022-11-27T17:43:57.464Z,17.45
2022-11-27T17:48:00.191Z,20.83
2022-11-27T17:52:06.365Z,14.38
2022-11-27T17:56:11.293Z,27.83
2022-11-27T18:00:13.348Z,34.72
2022-11-27T18:04:19.227Z,42.00
2022-11-27T18:08:20.917Z,27.20
2022-11-27T18:12:23.861Z,37.05
2022-11-27T18:16:29.672Z,19.05
2022-11-27T18:20:31.403Z,21.05
2022-11-27T18:24:35.633Z,36.60
2022-11-27T18:28:37.374Z,37.20
2022-11-27T18:32:39.321Z,25.15
2022-11-27T18:36:41.041Z,15.82
2022-11-27T18:40:45.617Z,12.73
2022-11-27T18:44:47.350Z,13.65
2022-11-27T18:48:49.937Z,13.98
2022-11-27T18:52:51.899Z,9.80
2022-11-27T18:56:53.736Z,6.75
2022-11-27T19:00:57.489Z,6.38
2022-11-27T19:04:59.638Z,4.78
2022-11-27T19:09:01.792Z,11.15
2022-11-27T19:13:03.790Z,8.90
2022-11-27T19:17:05.494Z,9.10
2022-11-27T19:21:10.110Z,6.68
2022-11-27T19:25:11.877Z,13.68
2022-11-27T19:29:14.743Z,17.65
2022-11-27T19:33:16.513Z,15.32
2022-11-27T19:37:33.560Z,17.38
2022-11-27T19:41:36.437Z,12.55
2022-11-27T19:45:38.363Z,14.50
2022-11-27T19:49:40.226Z,6.93
2022-11-27T19:53:42.748Z,4.80
2022-11-27T19:57:44.434Z,3.50
2022-11-27T20:01:46.233Z,3.42
2022-11-27T20:05:48.023Z,4.25
2022-11-27T20:09:49.765Z,9.35
2022-11-27T20:13:52.636Z,6.35
2022-11-27T20:17:55.473Z,5.65
2022-11-27T20:21:57.483Z,5.65
2022-11-27T20:25:59.209Z,4.47
2022-11-27T20:30:00.920Z,8.02
2022-11-27T20:34:04.979Z,5.75
2022-11-27T20:38:07.842Z,4.85
2022-11-27T20:42:09.608Z,3.78
2022-11-27T20:46:12.505Z,4.00
2022-11-27T20:50:14.237Z,3.55
2022-11-27T20:54:16.456Z,4.45
2022-11-27T20:58:18.184Z,4.20
2022-11-27T21:02:19.924Z,6.35
2022-11-27T21:06:24.681Z,6.70
2022-11-27T21:10:26.670Z,8.68
2022-11-27T21:14:28.437Z,10.57
2022-11-27T21:18:30.147Z,9.10
2022-11-27T21:22:31.909Z,9.30
2022-11-27T21:26:35.268Z,4.95
2022-11-27T21:30:38.143Z,8.45
2022-11-27T21:34:40.715Z,9.55
2022-11-27T21:38:43.051Z,11.38
2022-11-27T21:42:45.007Z,9.60
2022-11-27T21:46:47.776Z,7.43
2022-11-27T21:50:50.044Z,9.85
2022-11-27T21:54:53.632Z,9.88
2022-11-27T21:58:56.086Z,12.88
2022-11-27T22:02:57.791Z,7.38
2022-11-27T22:06:59.466Z,5.55
2022-11-27T22:11:01.984Z,7.78
2022-11-27T22:15:04.445Z,6.45
2022-11-27T22:19:06.578Z,3.35
2022-11-27T22:23:08.465Z,3.40
2022-11-27T22:27:10.222Z,3.30
2022-11-27T22:31:20.776Z,3.47
2022-11-27T22:35:24.932Z,4.47
2022-11-27T22:39:27.041Z,5.10
2022-11-27T22:43:28.786Z,3.50
2022-11-27T22:47:30.575Z,3.30
2022-11-27T22:51:35.571Z,6.78
2022-11-27T22:55:37.323Z,5.88
2022-11-27T22:59:39.114Z,5.35
2022-11-27T23:03:42.649Z,5.47
2022-11-27T23:07:44.713Z,6.80
2022-11-27T23:11:47.249Z,4.53
2022-11-27T23:15:48.975Z,3.13
2022-11-27T23:19:50.660Z,2.83
2022-11-27T23:23:52.968Z,3.50
2022-11-27T23:27:54.653Z,3.40
2022-11-27T23:31:56.389Z,4.30
2022-11-27T23:36:01.568Z,5.32
2022-11-27T23:40:04.137Z,5.75
2022-11-27T23:44:06.053Z,5.85
2022-11-27T23:48:07.747Z,5.28
2022-11-27T23:52:14.307Z,4.53
2022-11-27T23:56:29.517Z,5.13
